createdAt,value
2019-03-24T00:04:32.437Z,16.00
2019-03-24T00:09:48.899Z,21.47
2019-03-24T00:15:06.035Z,19.43
2019-03-24T00:20:29.120Z,18.97
2019-03-24T00:25:44.108Z,16.60
2019-03-24T00:31:01.550Z,19.83
2019-03-24T00:36:18.275Z,17.80
2019-03-24T00:41:34.807Z,18.10
2019-03-24T00:46:51.596Z,17.30
2019-03-24T00:52:10.778Z,17.10
2019-03-24T00:57:32.379Z,15.50
2019-03-24T01:02:48.799Z,13.03
2019-03-24T01:08:06.327Z,15.13
2019-03-24T01:13:24.306Z,16.77
2019-03-24T01:18:42.504Z,17.10
2019-03-24T01:23:58.892Z,18.97
2019-03-24T01:29:15.843Z,19.87
2019-03-24T01:34:32.549Z,17.97
2019-03-24T01:39:49.111Z,21.67
2019-03-24T01:45:05.809Z,17.37
2019-03-24T01:50:22.561Z,21.70
2019-03-24T01:55:39.021Z,18.67
2019-03-24T02:00:55.586Z,21.57
2019-03-24T02:06:12.557Z,18.40
2019-03-24T02:11:29.264Z,18.47
2019-03-24T02:16:45.816Z,18.97
2019-03-24T02:22:02.339Z,18.87
2019-03-24T02:27:19.186Z,19.07
2019-03-24T02:32:35.748Z,18.87
2019-03-24T02:37:52.224Z,19.37
2019-03-24T02:43:08.660Z,19.37
2019-03-24T02:48:25.421Z,19.57
2019-03-24T02:53:42.160Z,16.67
2019-03-24T02:58:58.829Z,15.60
2019-03-24T03:04:15.445Z,19.50
2019-03-24T03:09:32.001Z,19.20
2019-03-24T03:14:48.351Z,18.83
2019-03-24T03:20:05.004Z,19.13
2019-03-24T03:25:21.545Z,18.37
2019-03-24T03:30:40.038Z,17.30
2019-03-24T03:35:56.439Z,18.53
2019-03-24T03:41:12.956Z,22.13
2019-03-24T03:46:29.605Z,22.23
2019-03-24T03:51:46.072Z,21.50
2019-03-24T03:57:02.621Z,24.77
2019-03-24T04:02:19.431Z,19.83
2019-03-24T04:07:36.265Z,19.97
2019-03-24T04:12:52.876Z,21.67
2019-03-24T04:18:09.516Z,18.50
2019-03-24T04:23:26.220Z,18.93
2019-03-24T04:28:42.418Z,22.87
2019-03-24T04:34:00.284Z,22.50
2019-03-24T04:39:16.571Z,21.67
2019-03-24T04:44:32.812Z,21.87
2019-03-24T04:49:49.110Z,21.80
2019-03-24T04:55:06.292Z,24.33
2019-03-24T05:00:35.764Z,23.50
2019-03-24T05:05:52.561Z,23.10
2019-03-24T05:11:08.992Z,21.97
2019-03-24T05:16:25.689Z,26.50
2019-03-24T05:21:41.877Z,23.00
2019-03-24T05:26:58.667Z,26.67
2019-03-24T05:32:15.359Z,22.50
2019-03-24T05:37:31.769Z,20.57
2019-03-24T05:42:48.184Z,21.63
2019-03-24T05:48:04.786Z,23.83
2019-03-24T05:53:21.229Z,24.00
2019-03-24T05:58:37.282Z,23.23
2019-03-24T06:03:55.197Z,25.23
2019-03-24T06:09:14.341Z,23.60
2019-03-24T06:14:30.840Z,24.67
2019-03-24T06:19:47.244Z,25.70
2019-03-24T06:25:03.877Z,25.87
2019-03-24T06:30:20.337Z,23.10
2019-03-24T06:35:38.771Z,24.53
2019-03-24T06:40:55.649Z,27.10
2019-03-24T06:46:14.984Z,24.20
2019-03-24T06:51:32.308Z,28.47
2019-03-24T06:56:48.941Z,28.00
2019-03-24T07:02:05.619Z,27.30
2019-03-24T07:07:22.205Z,25.40
2019-03-24T07:12:38.792Z,32.23
2019-03-24T07:17:55.728Z,33.13
2019-03-24T07:23:12.399Z,32.67
2019-03-24T07:28:32.120Z,33.20
2019-03-24T07:33:48.358Z,32.53
2019-03-24T07:39:06.028Z,40.33
2019-03-24T07:44:22.259Z,30.63
2019-03-24T07:49:38.586Z,29.20
2019-03-24T07:54:55.619Z,31.80
2019-03-24T08:00:13.516Z,31.83
2019-03-24T08:05:30.214Z,37.00
2019-03-24T08:10:47.379Z,30.30
2019-03-24T08:16:04.492Z,29.50
2019-03-24T08:21:22.017Z,34.67
2019-03-24T08:26:38.638Z,35.27
2019-03-24T08:31:55.481Z,37.67
2019-03-24T08:37:12.038Z,32.57
2019-03-24T08:42:31.294Z,41.37
2019-03-24T08:47:47.616Z,37.87
2019-03-24T08:53:04.428Z,33.07
2019-03-24T08:58:21.243Z,36.97
2019-03-24T09:03:37.682Z,41.97
2019-03-24T09:08:54.539Z,40.13
2019-03-24T09:14:11.322Z,40.20
2019-03-24T09:19:27.915Z,45.20
2019-03-24T09:24:48.278Z,46.40
2019-03-24T09:30:06.013Z,41.33
2019-03-24T09:35:22.474Z,47.07
2019-03-24T09:40:46.552Z,45.67
2019-03-24T09:46:04.401Z,44.57
2019-03-24T09:51:24.261Z,48.43
2019-03-24T09:56:40.595Z,54.83
2019-03-24T10:01:57.469Z,47.03
2019-03-24T10:07:16.296Z,45.57
2019-03-24T10:12:33.066Z,51.00
2019-03-24T10:17:49.606Z,45.57
2019-03-24T10:23:06.164Z,47.37
2019-03-24T10:28:22.683Z,49.33
2019-03-24T10:33:38.999Z,48.80
2019-03-24T10:38:55.414Z,53.17
2019-03-24T10:44:12.583Z,51.37
2019-03-24T10:49:29.149Z,44.47
2019-03-24T10:54:45.853Z,47.80
2019-03-24T11:00:02.545Z,50.27
2019-03-24T11:05:20.548Z,46.77
2019-03-24T11:10:37.584Z,43.03
2019-03-24T11:15:54.221Z,44.73
2019-03-24T11:21:11.370Z,50.07
2019-03-24T11:26:31.313Z,48.13
2019-03-24T11:31:48.172Z,53.73
2019-03-24T11:37:04.875Z,44.90
2019-03-24T11:42:21.012Z,52.07
2019-03-24T11:47:37.655Z,56.13
2019-03-24T11:52:54.554Z,51.17
2019-03-24T11:58:11.071Z,48.57
2019-03-24T12:03:27.564Z,51.53
2019-03-24T12:08:45.900Z,51.53
2019-03-24T12:14:02.426Z,55.20
2019-03-24T12:19:19.205Z,49.67
2019-03-24T12:24:35.980Z,51.00
2019-03-24T12:29:53.074Z,47.07
2019-03-24T12:35:09.676Z,51.97
2019-03-24T12:40:26.250Z,43.57
2019-03-24T12:45:42.880Z,43.33
2019-03-24T12:50:59.394Z,53.40
2019-03-24T12:56:16.307Z,38.83
2019-03-24T13:01:32.784Z,39.13
2019-03-24T13:06:49.277Z,38.93
2019-03-24T13:12:06.122Z,37.93
2019-03-24T13:17:23.015Z,34.73
2019-03-24T13:22:39.366Z,35.03
2019-03-24T13:27:55.853Z,43.90
2019-03-24T13:33:13.922Z,33.40
2019-03-24T13:38:30.854Z,35.90
2019-03-24T13:43:47.292Z,35.47
2019-03-24T13:49:04.363Z,33.93
2019-03-24T13:54:20.809Z,35.23
2019-03-24T13:59:37.475Z,30.13
2019-03-24T14:04:54.155Z,28.13
2019-03-24T14:10:10.665Z,29.80
2019-03-24T14:15:27.363Z,39.37
2019-03-24T14:20:44.131Z,28.03
2019-03-24T14:26:00.735Z,33.33
2019-03-24T14:31:17.483Z,31.27
2019-03-24T14:36:34.658Z,32.70
2019-03-24T14:41:51.099Z,29.47
2019-03-24T14:47:08.546Z,31.13
2019-03-24T14:52:25.095Z,32.30
2019-03-24T14:57:41.707Z,29.77
2019-03-24T15:02:58.636Z,34.83
2019-03-24T15:08:19.794Z,33.47
2019-03-24T15:13:36.616Z,29.17
2019-03-24T15:18:53.521Z,27.37
2019-03-24T15:24:10.393Z,27.73
2019-03-24T15:29:27.145Z,28.77
2019-03-24T15:34:44.008Z,27.77
2019-03-24T15:40:00.937Z,29.77
2019-03-24T15:45:17.859Z,29.70
2019-03-24T15:50:34.256Z,29.47
2019-03-24T15:55:51.136Z,26.03
2019-03-24T16:01:07.892Z,28.77
2019-03-24T16:06:24.435Z,28.87
2019-03-24T16:11:40.887Z,25.83
2019-03-24T16:16:57.705Z,24.87
2019-03-24T16:22:14.316Z,26.13
2019-03-24T16:27:35.092Z,24.33
2019-03-24T16:32:52.948Z,22.37
2019-03-24T16:38:09.442Z,25.23
2019-03-24T16:43:26.061Z,26.33
2019-03-24T16:48:42.668Z,25.27
2019-03-24T16:53:59.484Z,24.23
2019-03-24T16:59:16.437Z,21.77
2019-03-24T17:04:34.571Z,23.03
2019-03-24T17:09:50.908Z,23.67
2019-03-24T17:15:08.262Z,25.93
2019-03-24T17:20:26.876Z,22.63
2019-03-24T17:25:44.077Z,20.50
2019-03-24T17:31:03.347Z,29.50
2019-03-24T17:36:20.319Z,23.47
2019-03-24T17:42:28.143Z,20.77
2019-03-24T17:47:57.237Z,18.87
2019-03-24T17:53:22.412Z,23.43
2019-03-24T17:58:39.133Z,17.70
2019-03-24T18:04:04.482Z,18.70
2019-03-24T18:09:32.844Z,18.47
2019-03-24T18:14:58.677Z,19.50
2019-03-24T18:20:48.422Z,18.43
2019-03-24T18:26:25.983Z,23.27
2019-03-24T18:31:47.821Z,24.10
2019-03-24T18:37:15.229Z,21.43
2019-03-24T18:42:44.994Z,22.70
2019-03-24T18:48:18.486Z,19.73
2019-03-24T18:53:41.196Z,23.73
2019-03-24T18:59:04.659Z,22.10
2019-03-24T19:04:23.485Z,23.87
2019-03-24T19:09:40.345Z,22.87
2019-03-24T19:15:05.936Z,28.27
2019-03-24T19:20:24.012Z,23.83
2019-03-24T19:25:52.338Z,26.53
2019-03-24T19:31:14.460Z,29.17
2019-03-24T19:36:38.070Z,23.33
2019-03-24T19:41:59.383Z,26.73
2019-03-24T19:47:18.269Z,25.77
2019-03-24T19:52:44.915Z,29.23
2019-03-24T19:58:10.071Z,25.07
2019-03-24T20:03:27.661Z,23.73
2019-03-24T20:08:44.639Z,24.43
2019-03-24T20:14:01.548Z,25.67
2019-03-24T20:19:18.353Z,26.37
2019-03-24T20:24:34.907Z,29.17
2019-03-24T20:29:56.196Z,26.23
2019-03-24T20:35:19.655Z,25.47
2019-03-24T20:40:35.913Z,28.07
2019-03-24T20:46:12.407Z,27.70
2019-03-24T20:51:29.388Z,25.50
2019-03-24T20:57:02.127Z,28.87
2019-03-24T21:02:21.833Z,28.20
2019-03-24T21:07:41.743Z,27.20
2019-03-24T21:12:58.732Z,28.80
2019-03-24T21:18:23.889Z,23.07
2019-03-24T21:23:42.579Z,26.37
2019-03-24T21:29:07.025Z,27.73
2019-03-24T21:34:26.126Z,24.23
2019-03-24T21:39:50.942Z,28.80
2019-03-24T21:45:10.150Z,29.83
2019-03-24T21:50:27.985Z,26.93
2019-03-24T21:55:45.495Z,30.73
2019-03-24T22:01:02.813Z,30.67
2019-03-24T22:06:25.565Z,29.10
2019-03-24T22:11:46.584Z,26.70
2019-03-24T22:17:24.874Z,24.43
2019-03-24T22:22:43.133Z,27.37
2019-03-24T22:27:59.769Z,24.73
2019-03-24T22:33:16.716Z,25.47
2019-03-24T22:38:37.966Z,27.00
2019-03-24T22:43:58.673Z,30.87
2019-03-24T22:49:15.237Z,25.97
2019-03-24T22:54:35.162Z,30.77
2019-03-24T22:59:55.712Z,28.37
2019-03-24T23:05:12.596Z,35.20
2019-03-24T23:10:29.423Z,29.63
2019-03-24T23:15:46.178Z,31.00
2019-03-24T23:21:02.964Z,34.63
2019-03-24T23:26:19.707Z,30.80
2019-03-24T23:31:36.401Z,29.17
2019-03-24T23:36:53.019Z,30.07
2019-03-24T23:42:09.718Z,30.60
2019-03-24T23:47:26.394Z,29.40
2019-03-24T23:52:42.911Z,24.23
2019-03-24T23:57:59.407Z,23.53
